createdAt,value
2022-09-12T00:01:38.774Z,16.40
2022-09-12T00:04:05.526Z,16.40
2022-09-12T00:06:37.407Z,16.30
2022-09-12T00:09:12.834Z,16.30
2022-09-12T00:11:41.844Z,16.30
2022-09-12T00:14:11.154Z,16.30
2022-09-12T00:16:38.929Z,16.30
2022-09-12T00:19:07.028Z,16.30
2022-09-12T00:21:35.312Z,16.30
2022-09-12T00:24:02.352Z,16.30
2022-09-12T00:26:29.289Z,16.30
2022-09-12T00:28:56.025Z,16.20
2022-09-12T00:31:25.515Z,16.20
2022-09-12T00:33:55.172Z,16.20
2022-09-12T00:36:24.701Z,16.10
2022-09-12T00:38:51.983Z,16.20
2022-09-12T00:41:28.333Z,16.20
2022-09-12T00:44:01.961Z,16.20
2022-09-12T00:46:35.224Z,16.30
2022-09-12T00:49:16.087Z,16.30
2022-09-12T00:51:51.165Z,16.20
2022-09-12T00:54:25.086Z,16.20
2022-09-12T00:56:55.757Z,16.20
2022-09-12T00:59:26.928Z,16.20
2022-09-12T01:01:54.586Z,16.30
2022-09-12T01:04:23.668Z,16.20
2022-09-12T01:06:51.725Z,16.10
2022-09-12T01:09:22.141Z,16.10
2022-09-12T01:11:50.598Z,16.10
2022-09-12T01:14:18.756Z,16.10
2022-09-12T01:16:47.279Z,16.20
2022-09-12T01:19:51.874Z,16.20
2022-09-12T01:22:24.527Z,16.10
2022-09-12T01:25:17.616Z,16.10
2022-09-12T01:27:50.082Z,16.10
2022-09-12T01:30:33.719Z,16.10
2022-09-12T01:33:06.271Z,16.10
2022-09-12T01:35:49.580Z,16.10
2022-09-12T01:38:47.330Z,16.20
2022-09-12T01:41:40.193Z,16.10
2022-09-12T01:44:35.193Z,16.10
2022-09-12T01:47:34.151Z,16.10
2022-09-12T01:50:07.087Z,16.00
2022-09-12T01:52:42.883Z,16.00
2022-09-12T01:55:25.033Z,15.90
2022-09-12T01:57:58.966Z,15.90
2022-09-12T02:00:26.752Z,15.90
2022-09-12T02:03:16.905Z,15.80
2022-09-12T02:05:51.123Z,15.80
2022-09-12T02:08:27.706Z,15.80
2022-09-12T02:11:00.249Z,15.90
2022-09-12T02:13:37.241Z,15.80
2022-09-12T02:16:09.536Z,15.80
2022-09-12T02:18:44.654Z,15.80
2022-09-12T02:21:11.800Z,15.80
2022-09-12T02:23:43.417Z,15.80
2022-09-12T02:26:19.070Z,15.80
2022-09-12T02:28:46.122Z,15.90
2022-09-12T02:31:35.901Z,15.90
2022-09-12T02:34:38.890Z,15.90
2022-09-12T02:37:23.562Z,15.90
2022-09-12T02:39:50.798Z,15.90
2022-09-12T02:42:17.552Z,15.90
2022-09-12T02:44:44.228Z,15.90
2022-09-12T02:47:19.520Z,15.90
2022-09-12T02:49:46.899Z,15.90
2022-09-12T02:52:13.684Z,15.80
2022-09-12T02:54:40.590Z,15.70
2022-09-12T02:57:22.916Z,15.80
2022-09-12T02:59:55.588Z,15.80
2022-09-12T03:02:28.226Z,15.70
2022-09-12T03:05:21.645Z,15.70
2022-09-12T03:08:05.448Z,15.60
2022-09-12T03:10:50.961Z,15.50
2022-09-12T03:13:36.329Z,15.50
2022-09-12T03:16:23.229Z,15.50
2022-09-12T03:19:04.136Z,15.40
2022-09-12T03:21:34.476Z,15.40
2022-09-12T03:24:29.444Z,15.40
2022-09-12T03:27:04.880Z,15.40
2022-09-12T03:29:31.824Z,15.40
2022-09-12T03:31:59.320Z,15.30
2022-09-12T03:34:27.964Z,15.30
2022-09-12T03:36:55.603Z,15.30
2022-09-12T03:39:24.484Z,15.30
2022-09-12T03:41:51.818Z,15.30
2022-09-12T03:44:19.422Z,15.30
2022-09-12T03:46:46.157Z,15.20
2022-09-12T03:49:12.949Z,15.30
2022-09-12T03:51:40.278Z,15.20
2022-09-12T03:54:07.312Z,15.20
2022-09-12T03:56:34.500Z,15.20
2022-09-12T03:59:01.410Z,15.10
2022-09-12T04:01:28.123Z,15.20
2022-09-12T04:03:54.826Z,15.20
2022-09-12T04:06:22.969Z,15.20
2022-09-12T04:08:53.038Z,15.20
2022-09-12T04:11:21.198Z,15.30
2022-09-12T04:13:48.627Z,15.20
2022-09-12T04:16:16.599Z,15.20
2022-09-12T04:18:43.536Z,15.20
2022-09-12T04:21:13.395Z,15.20
2022-09-12T04:23:40.128Z,15.20
2022-09-12T04:26:07.509Z,15.20
2022-09-12T04:28:35.901Z,15.20
2022-09-12T04:31:05.099Z,15.20
2022-09-12T04:33:31.838Z,15.20
2022-09-12T04:36:10.446Z,15.10
2022-09-12T04:38:37.725Z,15.00
2022-09-12T04:41:34.907Z,15.10
2022-09-12T04:44:05.214Z,15.10
2022-09-12T04:46:35.446Z,15.20
2022-09-12T04:49:02.480Z,15.30
2022-09-12T04:51:31.888Z,15.30
2022-09-12T04:54:02.505Z,15.40
2022-09-12T04:56:30.417Z,15.40
2022-09-12T04:58:58.969Z,15.50
2022-09-12T05:01:26.350Z,15.50
2022-09-12T05:03:53.872Z,15.60
2022-09-12T05:06:23.508Z,15.70
2022-09-12T05:08:51.529Z,15.80
2022-09-12T05:11:25.563Z,15.80
2022-09-12T05:13:57.348Z,16.00
2022-09-12T05:16:25.496Z,16.10
2022-09-12T05:18:52.588Z,16.20
2022-09-12T05:21:21.221Z,16.10
2022-09-12T05:23:51.801Z,16.20
2022-09-12T05:26:20.511Z,16.30
2022-09-12T05:28:48.562Z,16.30
2022-09-12T05:31:19.624Z,16.30
2022-09-12T05:33:49.227Z,16.40
2022-09-12T05:36:21.738Z,16.50
2022-09-12T05:38:48.574Z,16.50
2022-09-12T05:41:22.973Z,16.60
2022-09-12T05:43:56.289Z,16.60
2022-09-12T05:46:25.864Z,16.70
2022-09-12T05:48:56.340Z,16.70
2022-09-12T05:51:28.828Z,16.70
2022-09-12T05:53:58.038Z,16.70
2022-09-12T05:56:27.391Z,16.80
2022-09-12T05:59:16.022Z,16.80
2022-09-12T06:01:43.151Z,16.70
2022-09-12T06:04:10.540Z,16.80
2022-09-12T06:06:41.823Z,16.70
2022-09-12T06:09:09.052Z,16.70
2022-09-12T06:11:37.506Z,16.60
2022-09-12T06:14:05.124Z,16.70
2022-09-12T06:16:34.140Z,16.70
2022-09-12T06:19:03.560Z,16.80
2022-09-12T06:21:31.328Z,16.90
2022-09-12T06:23:59.025Z,17.10
2022-09-12T06:26:26.823Z,17.20
2022-09-12T06:28:54.885Z,17.30
2022-09-12T06:31:27.910Z,17.40
2022-09-12T06:33:55.654Z,17.60
2022-09-12T06:36:24.992Z,17.80
2022-09-12T06:38:57.291Z,17.80
2022-09-12T06:41:25.413Z,18.00
2022-09-12T06:43:52.213Z,18.00
2022-09-12T06:46:19.665Z,18.00
2022-09-12T06:48:46.671Z,18.10
2022-09-12T06:51:15.714Z,18.20
2022-09-12T06:53:44.361Z,18.10
2022-09-12T06:56:13.448Z,18.20
2022-09-12T06:58:41.159Z,18.20
2022-09-12T07:01:28.670Z,18.30
2022-09-12T07:03:57.716Z,18.40
2022-09-12T07:06:31.459Z,18.50
2022-09-12T07:09:02.695Z,18.60
2022-09-12T07:11:32.100Z,18.70
2022-09-12T07:14:00.821Z,18.80
2022-09-12T07:16:28.238Z,18.90
2022-09-12T07:18:57.561Z,18.90
2022-09-12T07:21:24.536Z,19.00
2022-09-12T07:24:00.792Z,18.90
2022-09-12T07:26:29.265Z,19.00
2022-09-12T07:29:12.835Z,19.00
2022-09-12T07:31:44.440Z,19.00
2022-09-12T07:34:11.656Z,19.10
2022-09-12T07:36:39.176Z,19.00
2022-09-12T07:39:06.220Z,19.10
2022-09-12T07:41:36.751Z,19.30
2022-09-12T07:44:05.025Z,19.40
2022-09-12T07:46:32.390Z,19.50
2022-09-12T07:49:00.712Z,19.60
2022-09-12T07:51:28.881Z,19.70
2022-09-12T07:53:56.525Z,19.70
2022-09-12T07:56:27.509Z,19.70
2022-09-12T07:58:56.906Z,19.80
2022-09-12T08:01:23.911Z,20.40
2022-09-12T08:03:55.307Z,22.50
2022-09-12T08:46:38.984Z,27.70
2022-09-12T08:49:10.755Z,25.10
2022-09-12T08:51:38.929Z,24.30
2022-09-12T08:56:48.172Z,23.80
2022-09-12T08:59:15.441Z,23.60
2022-09-12T09:01:45.343Z,23.60
2022-09-12T09:04:48.965Z,23.80
2022-09-12T09:07:55.035Z,24.00
2022-09-12T09:10:29.333Z,23.80
2022-09-12T09:13:04.803Z,23.50
2022-09-12T09:15:49.553Z,23.20
2022-09-12T09:18:28.733Z,23.10
2022-09-12T09:21:14.910Z,23.10
2022-09-12T09:23:48.269Z,23.50
2022-09-12T09:26:19.328Z,24.40
2022-09-12T09:29:17.684Z,25.30
2022-09-12T09:31:52.190Z,25.90
2022-09-12T09:34:20.882Z,26.00
2022-09-12T09:36:50.340Z,26.00
2022-09-12T09:39:44.537Z,25.50
2022-09-12T09:42:53.924Z,25.10
2022-09-12T09:45:24.362Z,24.60
2022-09-12T09:48:17.082Z,24.00
2022-09-12T09:50:45.729Z,23.60
2022-09-12T09:53:42.729Z,24.40
2022-09-12T09:56:24.474Z,25.30
2022-09-12T09:58:52.335Z,26.20
2022-09-12T10:01:19.925Z,26.40
2022-09-12T10:03:54.033Z,26.10
2022-09-12T10:06:20.928Z,25.50
2022-09-12T10:08:49.545Z,24.90
2022-09-12T10:11:16.229Z,24.70
2022-09-12T10:13:56.929Z,25.00
2022-09-12T10:16:30.322Z,25.70
2022-09-12T10:19:02.086Z,26.50
2022-09-12T10:21:31.992Z,27.30
2022-09-12T10:24:22.922Z,27.50
2022-09-12T10:26:56.556Z,27.40
2022-09-12T10:29:33.339Z,27.00
2022-09-12T10:32:08.952Z,26.20
2022-09-12T10:34:36.664Z,25.70
2022-09-12T10:37:07.301Z,25.40
2022-09-12T10:39:36.302Z,25.20
2022-09-12T10:42:04.593Z,24.80
2022-09-12T10:44:33.913Z,24.80
2022-09-12T10:47:20.653Z,24.80
2022-09-12T10:49:47.337Z,24.70
2022-09-12T10:52:25.082Z,24.40
2022-09-12T10:54:52.681Z,24.00
2022-09-12T10:57:42.814Z,23.80
2022-09-12T11:00:18.107Z,23.70
2022-09-12T11:03:02.826Z,23.70
2022-09-12T11:05:44.618Z,23.80
2022-09-12T11:08:26.580Z,24.00
2022-09-12T11:11:13.799Z,24.10
2022-09-12T11:14:07.753Z,24.20
2022-09-12T11:16:55.721Z,24.30
2022-09-12T11:19:37.581Z,24.30
2022-09-12T11:22:19.375Z,24.30
2022-09-12T11:25:05.380Z,24.20
2022-09-12T11:27:56.301Z,24.10
2022-09-12T11:30:22.999Z,23.90
2022-09-12T11:33:13.081Z,23.90
2022-09-12T11:35:54.960Z,23.90
2022-09-12T11:38:41.067Z,23.80
2022-09-12T11:41:15.542Z,23.70
2022-09-12T11:43:48.679Z,23.60
2022-09-12T11:46:24.890Z,23.60
2022-09-12T11:49:02.697Z,23.60
2022-09-12T11:51:52.623Z,23.60
2022-09-12T11:55:03.899Z,23.60
2022-09-12T11:57:33.559Z,23.60
2022-09-12T12:00:20.869Z,23.30
2022-09-12T12:03:07.117Z,23.10
2022-09-12T12:05:44.705Z,23.10
2022-09-12T12:08:12.268Z,23.10
2022-09-12T12:10:43.372Z,23.10
2022-09-12T12:13:33.268Z,23.00
2022-09-12T12:16:07.130Z,22.90
2022-09-12T12:18:37.494Z,22.70
2022-09-12T12:21:40.111Z,22.60
2022-09-12T12:24:10.340Z,22.40
2022-09-12T12:26:39.944Z,22.30
2022-09-12T12:29:35.317Z,22.30
2022-09-12T12:32:02.076Z,22.40
2022-09-12T12:34:37.734Z,22.30
2022-09-12T12:37:22.202Z,22.20
2022-09-12T12:39:49.985Z,22.10
2022-09-12T12:42:35.089Z,22.20
2022-09-12T12:45:08.559Z,22.30
2022-09-12T12:47:38.040Z,22.50
2022-09-12T12:50:12.210Z,22.60
2022-09-12T12:53:04.264Z,22.70
2022-09-12T12:55:34.180Z,22.70
2022-09-12T12:58:27.561Z,22.80
2022-09-12T13:01:14.608Z,23.00
2022-09-12T13:03:45.979Z,23.20
2022-09-12T13:06:36.863Z,23.40
2022-09-12T13:09:08.072Z,23.50
2022-09-12T13:11:38.558Z,23.50
2022-09-12T13:14:09.505Z,23.50
2022-09-12T13:16:52.098Z,23.60
2022-09-12T13:19:30.038Z,23.70
2022-09-12T13:22:00.652Z,23.70
2022-09-12T13:24:28.204Z,23.60
2022-09-12T13:26:57.569Z,23.60
2022-09-12T13:29:26.660Z,23.50
2022-09-12T13:31:59.139Z,23.40
2022-09-12T13:34:35.245Z,23.40
2022-09-12T13:37:16.238Z,23.20
2022-09-12T13:39:54.254Z,23.20
2022-09-12T13:42:48.630Z,23.20
2022-09-12T13:45:20.360Z,23.30
2022-09-12T13:47:55.397Z,23.50
2022-09-12T13:50:28.135Z,23.50
2022-09-12T13:53:01.957Z,23.50
2022-09-12T13:55:41.558Z,23.40
2022-09-12T13:58:24.578Z,23.30
2022-09-12T14:01:05.748Z,23.20
2022-09-12T14:03:58.903Z,23.10
2022-09-12T14:06:27.575Z,23.10
2022-09-12T14:08:58.938Z,23.00
2022-09-12T14:11:31.150Z,23.00
2022-09-12T14:13:58.393Z,22.90
2022-09-12T14:16:28.987Z,22.80
2022-09-12T14:18:56.143Z,22.80
2022-09-12T14:21:30.326Z,22.80
2022-09-12T14:23:57.553Z,22.80
2022-09-12T14:26:26.033Z,22.80
2022-09-12T14:28:53.248Z,22.80
2022-09-12T14:31:28.654Z,22.90
2022-09-12T14:34:08.753Z,22.90
2022-09-12T14:36:36.314Z,22.90
2022-09-12T14:39:06.638Z,23.00
2022-09-12T14:41:40.788Z,23.00
2022-09-12T14:44:16.050Z,23.00
2022-09-12T14:46:44.744Z,23.00
2022-09-12T14:49:34.973Z,23.00
2022-09-12T14:52:05.713Z,22.80
2022-09-12T14:54:33.759Z,22.60
2022-09-12T14:59:33.460Z,22.40
2022-09-12T15:02:21.415Z,22.10
2022-09-12T15:04:49.314Z,22.10
2022-09-12T15:07:22.668Z,22.00
2022-09-12T15:09:49.691Z,21.90
2022-09-12T15:12:16.434Z,21.90
2022-09-12T15:14:43.092Z,21.70
2022-09-12T15:17:09.747Z,21.70
2022-09-12T15:19:36.404Z,21.50
2022-09-12T15:22:03.085Z,21.40
2022-09-12T15:26:56.911Z,21.40
2022-09-12T15:29:23.842Z,21.10
2022-09-12T15:31:51.337Z,21.00
2022-09-12T15:34:18.143Z,20.90
2022-09-12T15:36:44.801Z,20.90
2022-09-12T15:39:12.233Z,20.80
2022-09-12T15:41:39.500Z,20.70
2022-09-12T15:44:11.151Z,20.70
2022-09-12T15:46:38.406Z,20.70
2022-09-12T15:49:05.105Z,20.60
2022-09-12T15:51:32.239Z,20.50
2022-09-12T15:54:00.220Z,20.50
2022-09-12T15:56:27.065Z,20.50
2022-09-12T15:59:00.833Z,20.40
2022-09-12T16:01:29.101Z,20.30
2022-09-12T16:03:56.070Z,20.30
2022-09-12T16:06:23.445Z,20.20
2022-09-12T16:08:50.365Z,20.10
2022-09-12T16:11:26.507Z,20.10
2022-09-12T16:13:54.917Z,20.00
2022-09-12T16:16:22.049Z,20.00
2022-09-12T16:18:48.926Z,19.90
2022-09-12T16:21:16.182Z,19.90
2022-09-12T16:23:44.223Z,19.80
2022-09-12T16:26:10.986Z,19.80
2022-09-12T16:28:37.959Z,19.70
2022-09-12T16:31:06.869Z,19.70
2022-09-12T16:33:33.684Z,19.70
2022-09-12T16:36:03.379Z,19.60
2022-09-12T16:38:30.785Z,19.50
2022-09-12T16:41:05.871Z,19.50
2022-09-12T16:43:34.879Z,19.40
2022-09-12T16:46:07.344Z,19.30
2022-09-12T16:48:34.448Z,19.20
2022-09-12T16:51:06.755Z,19.20
2022-09-12T16:53:35.497Z,19.10
2022-09-12T16:56:02.436Z,19.00
2022-09-12T16:58:32.908Z,19.00
2022-09-12T17:01:14.479Z,18.90
2022-09-12T17:03:41.607Z,18.90
2022-09-12T17:06:10.640Z,18.80
2022-09-12T17:08:40.005Z,18.80
2022-09-12T17:11:12.352Z,18.70
2022-09-12T17:14:02.770Z,18.70
2022-09-12T17:16:27.322Z,18.60
2022-09-12T17:18:54.863Z,18.50
2022-09-12T17:21:21.884Z,18.50
2022-09-12T17:31:13.367Z,18.40
2022-09-12T17:33:40.879Z,18.20
2022-09-12T17:36:11.265Z,18.20
2022-09-12T17:38:42.223Z,18.00
2022-09-12T17:41:20.693Z,18.00
2022-09-12T17:43:55.783Z,18.00
2022-09-12T17:46:24.892Z,17.90
2022-09-12T17:48:56.445Z,17.90
2022-09-12T17:51:25.824Z,17.80
2022-09-12T17:54:08.282Z,17.80
2022-09-12T17:56:37.042Z,17.70
2022-09-12T17:59:05.218Z,17.70
2022-09-12T18:01:51.653Z,17.60
2022-09-12T18:04:19.874Z,17.50
2022-09-12T18:06:48.825Z,17.50
2022-09-12T18:09:21.112Z,17.50
2022-09-12T18:11:49.154Z,17.50
2022-09-12T18:14:17.325Z,17.50
2022-09-12T18:16:44.743Z,17.50
2022-09-12T18:19:11.553Z,17.50
2022-09-12T18:21:38.552Z,17.40
2022-09-12T18:24:06.099Z,17.40
2022-09-12T18:26:33.288Z,17.40
2022-09-12T18:29:00.223Z,17.50
2022-09-12T18:31:30.042Z,17.50
2022-09-12T18:33:57.654Z,17.40
2022-09-12T18:36:24.442Z,17.50
2022-09-12T18:38:51.322Z,17.50
2022-09-12T18:41:23.356Z,17.40
2022-09-12T18:43:55.282Z,17.40
2022-09-12T18:46:22.799Z,17.30
2022-09-12T18:48:49.751Z,17.30
2022-09-12T18:51:19.030Z,17.30
2022-09-12T18:53:56.645Z,17.30
2022-09-12T18:56:25.165Z,17.30
2022-09-12T18:58:56.605Z,17.30
2022-09-12T19:01:29.756Z,17.30
2022-09-12T19:03:56.994Z,17.30
2022-09-12T19:06:26.869Z,17.20
2022-09-12T19:08:55.844Z,17.20
2022-09-12T19:11:24.098Z,17.20
2022-09-12T19:13:52.523Z,17.10
2022-09-12T19:16:27.682Z,17.10
2022-09-12T19:18:58.217Z,17.10
2022-09-12T19:21:30.343Z,17.00
2022-09-12T19:24:00.227Z,17.00
2022-09-12T19:26:27.227Z,17.00
2022-09-12T19:28:55.227Z,16.90
2022-09-12T19:31:23.605Z,16.80
2022-09-12T20:03:54.961Z,16.30
2022-09-12T20:06:21.931Z,16.30
2022-09-12T20:08:48.853Z,16.30
2022-09-12T20:11:18.017Z,16.20
2022-09-12T20:13:45.931Z,16.20
2022-09-12T20:16:18.997Z,16.20
2022-09-12T20:18:49.368Z,16.20
2022-09-12T20:21:18.793Z,16.20
2022-09-12T20:23:46.321Z,16.20
2022-09-12T20:26:13.746Z,16.10
2022-09-12T20:28:41.915Z,16.10
2022-09-12T20:31:13.177Z,16.00
2022-09-12T20:33:40.475Z,15.90
2022-09-12T20:36:10.168Z,15.90
2022-09-12T20:38:37.243Z,15.80
2022-09-12T20:41:06.108Z,15.70
2022-09-12T20:43:33.273Z,15.60
2022-09-12T20:46:00.097Z,15.60
2022-09-12T20:48:27.305Z,15.60
2022-09-12T20:50:53.967Z,15.60
2022-09-12T20:53:20.797Z,15.60
2022-09-12T20:55:52.107Z,15.60
2022-09-12T20:58:20.577Z,15.60
2022-09-12T21:00:47.913Z,15.60
2022-09-12T21:03:15.591Z,15.60
2022-09-12T21:05:43.508Z,15.50
2022-09-12T21:08:11.115Z,15.50
2022-09-12T21:10:40.195Z,15.40
2022-09-12T21:13:07.933Z,15.50
2022-09-12T21:15:34.597Z,15.40
2022-09-12T21:18:01.305Z,15.50
2022-09-12T21:20:27.988Z,15.50
2022-09-12T21:22:54.644Z,15.40
2022-09-12T21:25:21.310Z,15.50
2022-09-12T21:27:48.025Z,15.50
2022-09-12T21:30:14.915Z,15.50
2022-09-12T21:32:41.903Z,15.50
2022-09-12T21:35:09.085Z,15.40
2022-09-12T21:37:35.783Z,15.40
2022-09-12T21:40:03.297Z,15.50
2022-09-12T21:42:30.290Z,15.50
2022-09-12T21:44:57.026Z,15.50
2022-09-12T21:47:24.477Z,15.50
2022-09-12T21:49:51.141Z,15.50
2022-09-12T21:52:17.798Z,15.50
2022-09-12T21:54:44.447Z,15.50
2022-09-12T21:57:11.109Z,15.40
2022-09-12T21:59:37.843Z,15.40
2022-09-12T22:02:08.326Z,15.40
2022-09-12T22:04:35.057Z,15.40
2022-09-12T22:07:02.101Z,15.40
2022-09-12T22:09:28.807Z,15.40
2022-09-12T22:11:55.609Z,15.40
2022-09-12T22:14:22.331Z,15.50
2022-09-12T22:16:49.440Z,15.50
2022-09-12T22:19:16.244Z,15.50
2022-09-12T22:22:02.885Z,15.50
2022-09-12T22:24:30.021Z,15.50
2022-09-12T22:26:59.066Z,15.50
2022-09-12T22:29:26.775Z,15.40
2022-09-12T22:31:53.790Z,15.40
2022-09-12T22:34:20.469Z,15.50
2022-09-12T22:36:50.107Z,15.50
2022-09-12T22:39:16.830Z,15.50
2022-09-12T22:41:43.590Z,15.40
2022-09-12T22:44:11.169Z,15.40
2022-09-12T22:46:38.586Z,15.40
2022-09-12T22:49:06.584Z,15.40
2022-09-12T22:51:33.891Z,15.40
2022-09-12T22:54:00.579Z,15.40
2022-09-12T22:56:27.521Z,15.40
2022-09-12T22:58:54.439Z,15.40
2022-09-12T23:01:21.342Z,15.40
2022-09-12T23:03:48.225Z,15.40
2022-09-12T23:06:15.071Z,15.40
2022-09-12T23:08:42.155Z,15.40
2022-09-12T23:11:14.659Z,15.40
2022-09-12T23:13:43.696Z,15.40
2022-09-12T23:16:18.608Z,15.30
2022-09-12T23:18:45.746Z,15.30
2022-09-12T23:21:14.443Z,15.30
2022-09-12T23:23:41.858Z,15.30
2022-09-12T23:26:15.887Z,15.30
2022-09-12T23:28:51.196Z,15.20
2022-09-12T23:31:18.302Z,15.20
2022-09-12T23:33:45.653Z,15.10
2022-09-12T23:36:14.230Z,15.00
2022-09-12T23:38:43.553Z,15.00
2022-09-12T23:41:11.105Z,15.00
2022-09-12T23:43:37.903Z,14.90
2022-09-12T23:46:05.671Z,14.90
2022-09-12T23:48:33.375Z,14.90
2022-09-12T23:51:00.593Z,14.80
2022-09-12T23:53:27.743Z,14.80
2022-09-12T23:55:54.470Z,14.70
2022-09-12T23:58:22.683Z,14.70
